sensor_id;sensor_type;location;lat;lon;timestamp;P1;durP1;ratioP1;P2;durP2;ratioP2
19889;SDS011;10107;51.198;6.824;2024-03-25T00:01:05;11.57;;;3.38;;
19889;SDS011;10107;51.198;6.824;2024-03-25T00:05:08;8.27;;;2.42;;
19889;SDS011;10107;51.198;6.824;2024-03-25T00:13:14;10.52;;;2.63;;
19889;SDS011;10107;51.198;6.824;2024-03-25T00:17:17;10.57;;;2.53;;
19889;SDS011;10107;51.198;6.824;2024-03-25T00:21:19;7.72;;;2.40;;
19889;SDS011;10107;51.198;6.824;2024-03-25T00:25:21;14.82;;;3.95;;
19889;SDS011;10107;51.198;6.824;2024-03-25T00:29:23;9.13;;;3.30;;
19889;SDS011;10107;51.198;6.824;2024-03-25T00:33:26;12.20;;;3.38;;
19889;SDS011;10107;51.198;6.824;2024-03-25T00:37:27;9.93;;;3.70;;
19889;SDS011;10107;51.198;6.824;2024-03-25T00:41:30;12.30;;;4.00;;
19889;SDS011;10107;51.198;6.824;2024-03-25T00:45:30;14.95;;;4.55;;
19889;SDS011;10107;51.198;6.824;2024-03-25T00:49:33;10.90;;;4.20;;
19889;SDS011;10107;51.198;6.824;2024-03-25T00:53:34;7.20;;;3.17;;
19889;SDS011;10107;51.198;6.824;2024-03-25T00:57:36;11.30;;;4.25;;
19889;SDS011;10107;51.198;6.824;2024-03-25T01:01:38;12.50;;;4.10;;
19889;SDS011;10107;51.198;6.824;2024-03-25T01:05:41;12.57;;;4.60;;
19889;SDS011;10107;51.198;6.824;2024-03-25T01:09:42;10.93;;;4.68;;
19889;SDS011;10107;51.198;6.824;2024-03-25T01:13:43;20.70;;;4.90;;
19889;SDS011;10107;51.198;6.824;2024-03-25T01:17:44;11.02;;;4.80;;
19889;SDS011;10107;51.198;6.824;2024-03-25T01:21:47;14.35;;;5.03;;
19889;SDS011;10107;51.198;6.824;2024-03-25T01:25:50;13.65;;;4.47;;
19889;SDS011;10107;51.198;6.824;2024-03-25T01:29:51;11.43;;;4.38;;
19889;SDS011;10107;51.198;6.824;2024-03-25T01:33:53;9.23;;;4.90;;
19889;SDS011;10107;51.198;6.824;2024-03-25T01:37:56;12.30;;;4.82;;
19889;SDS011;10107;51.198;6.824;2024-03-25T01:41:58;12.80;;;5.05;;
19889;SDS011;10107;51.198;6.824;2024-03-25T01:46:00;13.45;;;4.50;;
19889;SDS011;10107;51.198;6.824;2024-03-25T01:50:02;9.63;;;4.47;;
19889;SDS011;10107;51.198;6.824;2024-03-25T01:54:05;12.45;;;4.80;;
19889;SDS011;10107;51.198;6.824;2024-03-25T01:58:08;10.07;;;4.22;;
19889;SDS011;10107;51.198;6.824;2024-03-25T02:02:10;13.27;;;4.82;;
19889;SDS011;10107;51.198;6.824;2024-03-25T02:06:13;9.95;;;4.30;;
19889;SDS011;10107;51.198;6.824;2024-03-25T02:14:19;13.05;;;4.40;;
19889;SDS011;10107;51.198;6.824;2024-03-25T02:18:21;12.65;;;4.53;;
19889;SDS011;10107;51.198;6.824;2024-03-25T02:22:23;12.65;;;4.50;;
19889;SDS011;10107;51.198;6.824;2024-03-25T02:26:26;14.18;;;4.90;;
19889;SDS011;10107;51.198;6.824;2024-03-25T02:30:28;12.30;;;4.63;;
19889;SDS011;10107;51.198;6.824;2024-03-25T02:34:30;13.70;;;4.47;;
19889;SDS011;10107;51.198;6.824;2024-03-25T02:38:31;15.73;;;4.50;;
19889;SDS011;10107;51.198;6.824;2024-03-25T02:42:35;12.02;;;4.05;;
19889;SDS011;10107;51.198;6.824;2024-03-25T02:46:38;11.98;;;4.18;;
19889;SDS011;10107;51.198;6.824;2024-03-25T02:50:40;11.68;;;4.35;;
19889;SDS011;10107;51.198;6.824;2024-03-25T02:54:42;11.75;;;4.00;;
19889;SDS011;10107;51.198;6.824;2024-03-25T02:58:45;13.57;;;4.32;;
19889;SDS011;10107;51.198;6.824;2024-03-25T03:02:47;14.00;;;4.43;;
19889;SDS011;10107;51.198;6.824;2024-03-25T03:06:48;12.68;;;3.92;;
19889;SDS011;10107;51.198;6.824;2024-03-25T03:10:50;9.23;;;4.00;;
19889;SDS011;10107;51.198;6.824;2024-03-25T03:14:53;15.23;;;5.07;;
19889;SDS011;10107;51.198;6.824;2024-03-25T03:18:54;8.25;;;2.95;;
19889;SDS011;10107;51.198;6.824;2024-03-25T03:22:56;14.23;;;3.92;;
19889;SDS011;10107;51.198;6.824;2024-03-25T03:26:58;9.80;;;3.65;;
19889;SDS011;10107;51.198;6.824;2024-03-25T03:31:01;11.45;;;3.97;;
19889;SDS011;10107;51.198;6.824;2024-03-25T03:35:02;12.48;;;4.03;;
19889;SDS011;10107;51.198;6.824;2024-03-25T03:39:04;11.02;;;3.83;;
19889;SDS011;10107;51.198;6.824;2024-03-25T03:43:09;8.55;;;3.63;;
19889;SDS011;10107;51.198;6.824;2024-03-25T03:47:11;12.05;;;3.78;;
19889;SDS011;10107;51.198;6.824;2024-03-25T03:51:13;13.90;;;4.38;;
19889;SDS011;10107;51.198;6.824;2024-03-25T03:55:15;11.98;;;5.13;;
19889;SDS011;10107;51.198;6.824;2024-03-25T03:59:16;7.68;;;4.28;;
19889;SDS011;10107;51.198;6.824;2024-03-25T04:03:20;9.98;;;4.50;;
19889;SDS011;10107;51.198;6.824;2024-03-25T04:11:26;13.18;;;3.65;;
19889;SDS011;10107;51.198;6.824;2024-03-25T04:15:28;9.57;;;4.20;;
19889;SDS011;10107;51.198;6.824;2024-03-25T04:19:30;9.68;;;3.90;;
19889;SDS011;10107;51.198;6.824;2024-03-25T04:23:32;10.77;;;4.20;;
19889;SDS011;10107;51.198;6.824;2024-03-25T04:27:33;11.65;;;4.65;;
19889;SDS011;10107;51.198;6.824;2024-03-25T04:31:35;22.17;;;8.02;;
19889;SDS011;10107;51.198;6.824;2024-03-25T04:35:39;19.65;;;9.45;;
19889;SDS011;10107;51.198;6.824;2024-03-25T04:39:41;23.58;;;10.10;;
19889;SDS011;10107;51.198;6.824;2024-03-25T04:43:42;19.73;;;9.35;;
19889;SDS011;10107;51.198;6.824;2024-03-25T04:47:43;19.73;;;9.07;;
19889;SDS011;10107;51.198;6.824;2024-03-25T04:51:45;28.17;;;13.15;;
19889;SDS011;10107;51.198;6.824;2024-03-25T04:55:46;22.63;;;10.70;;
19889;SDS011;10107;51.198;6.824;2024-03-25T04:59:47;25.30;;;11.90;;
19889;SDS011;10107;51.198;6.824;2024-03-25T05:03:47;36.35;;;16.02;;
19889;SDS011;10107;51.198;6.824;2024-03-25T05:07:49;30.48;;;14.75;;
19889;SDS011;10107;51.198;6.824;2024-03-25T05:11:50;18.90;;;10.63;;
19889;SDS011;10107;51.198;6.824;2024-03-25T05:15:51;19.27;;;8.70;;
19889;SDS011;10107;51.198;6.824;2024-03-25T05:19:52;17.33;;;7.50;;
19889;SDS011;10107;51.198;6.824;2024-03-25T05:23:54;16.05;;;7.75;;
19889;SDS011;10107;51.198;6.824;2024-03-25T05:27:55;14.98;;;7.78;;
19889;SDS011;10107;51.198;6.824;2024-03-25T05:31:56;14.88;;;7.30;;
19889;SDS011;10107;51.198;6.824;2024-03-25T05:35:58;16.98;;;7.40;;
19889;SDS011;10107;51.198;6.824;2024-03-25T05:40:00;17.20;;;8.27;;
19889;SDS011;10107;51.198;6.824;2024-03-25T05:44:01;13.70;;;6.65;;
19889;SDS011;10107;51.198;6.824;2024-03-25T05:48:01;16.60;;;8.13;;
19889;SDS011;10107;51.198;6.824;2024-03-25T05:52:02;16.38;;;8.13;;
19889;SDS011;10107;51.198;6.824;2024-03-25T05:56:05;11.85;;;5.82;;
19889;SDS011;10107;51.198;6.824;2024-03-25T06:00:06;12.88;;;6.30;;
19889;SDS011;10107;51.198;6.824;2024-03-25T06:04:12;12.10;;;5.97;;
19889;SDS011;10107;51.198;6.824;2024-03-25T06:08:13;14.68;;;5.93;;
19889;SDS011;10107;51.198;6.824;2024-03-25T06:12:19;12.30;;;4.90;;
19889;SDS011;10107;51.198;6.824;2024-03-25T06:16:20;14.63;;;5.60;;
19889;SDS011;10107;51.198;6.824;2024-03-25T06:20:20;11.60;;;5.07;;
19889;SDS011;10107;51.198;6.824;2024-03-25T06:24:21;12.93;;;5.90;;
19889;SDS011;10107;51.198;6.824;2024-03-25T06:28:23;12.00;;;5.88;;
19889;SDS011;10107;51.198;6.824;2024-03-25T06:32:24;12.45;;;5.63;;
19889;SDS011;10107;51.198;6.824;2024-03-25T06:36:43;9.88;;;5.32;;
19889;SDS011;10107;51.198;6.824;2024-03-25T06:40:44;15.48;;;5.57;;
19889;SDS011;10107;51.198;6.824;2024-03-25T06:44:47;9.32;;;5.00;;
19889;SDS011;10107;51.198;6.824;2024-03-25T06:48:47;13.52;;;4.55;;
19889;SDS011;10107;51.198;6.824;2024-03-25T06:52:48;9.80;;;4.78;;
19889;SDS011;10107;51.198;6.824;2024-03-25T06:56:49;9.80;;;4.25;;
19889;SDS011;10107;51.198;6.824;2024-03-25T07:00:51;9.80;;;4.70;;
19889;SDS011;10107;51.198;6.824;2024-03-25T07:04:53;13.20;;;5.00;;
19889;SDS011;10107;51.198;6.824;2024-03-25T07:08:53;14.35;;;5.18;;
19889;SDS011;10107;51.198;6.824;2024-03-25T07:12:54;10.18;;;4.65;;
19889;SDS011;10107;51.198;6.824;2024-03-25T07:16:56;9.32;;;4.15;;
19889;SDS011;10107;51.198;6.824;2024-03-25T07:20:57;10.48;;;4.57;;
19889;SDS011;10107;51.198;6.824;2024-03-25T07:25:01;11.15;;;4.20;;
19889;SDS011;10107;51.198;6.824;2024-03-25T07:29:02;10.00;;;3.80;;
19889;SDS011;10107;51.198;6.824;2024-03-25T07:33:04;9.70;;;3.65;;
19889;SDS011;10107;51.198;6.824;2024-03-25T07:37:05;10.45;;;3.42;;
19889;SDS011;10107;51.198;6.824;2024-03-25T07:41:05;9.90;;;3.83;;
19889;SDS011;10107;51.198;6.824;2024-03-25T07:45:06;8.93;;;3.38;;
19889;SDS011;10107;51.198;6.824;2024-03-25T07:49:09;8.85;;;3.15;;
19889;SDS011;10107;51.198;6.824;2024-03-25T07:53:09;10.05;;;3.45;;
19889;SDS011;10107;51.198;6.824;2024-03-25T07:57:10;11.82;;;3.83;;
19889;SDS011;10107;51.198;6.824;2024-03-25T08:01:11;8.45;;;3.47;;
19889;SDS011;10107;51.198;6.824;2024-03-25T08:05:13;10.45;;;3.92;;
19889;SDS011;10107;51.198;6.824;2024-03-25T08:09:14;10.13;;;3.80;;
19889;SDS011;10107;51.198;6.824;2024-03-25T08:13:14;8.40;;;3.42;;
19889;SDS011;10107;51.198;6.824;2024-03-25T08:17:15;11.32;;;4.07;;
19889;SDS011;10107;51.198;6.824;2024-03-25T08:21:17;9.88;;;3.80;;
19889;SDS011;10107;51.198;6.824;2024-03-25T08:25:18;11.43;;;4.10;;
19889;SDS011;10107;51.198;6.824;2024-03-25T08:29:18;7.40;;;3.10;;
19889;SDS011;10107;51.198;6.824;2024-03-25T08:33:19;10.95;;;3.53;;
19889;SDS011;10107;51.198;6.824;2024-03-25T08:37:21;10.93;;;3.90;;
19889;SDS011;10107;51.198;6.824;2024-03-25T08:41:22;9.20;;;3.53;;
19889;SDS011;10107;51.198;6.824;2024-03-25T08:45:23;10.65;;;4.15;;
19889;SDS011;10107;51.198;6.824;2024-03-25T08:49:24;8.90;;;3.40;;
19889;SDS011;10107;51.198;6.824;2024-03-25T08:53:26;7.88;;;3.58;;
19889;SDS011;10107;51.198;6.824;2024-03-25T08:57:27;9.52;;;3.83;;
19889;SDS011;10107;51.198;6.824;2024-03-25T09:01:27;9.90;;;3.20;;
19889;SDS011;10107;51.198;6.824;2024-03-25T09:05:28;10.32;;;3.40;;
19889;SDS011;10107;51.198;6.824;2024-03-25T09:09:30;10.93;;;3.70;;
19889;SDS011;10107;51.198;6.824;2024-03-25T09:13:49;10.35;;;2.88;;
19889;SDS011;10107;51.198;6.824;2024-03-25T09:17:50;9.32;;;2.72;;
19889;SDS011;10107;51.198;6.824;2024-03-25T09:21:51;7.07;;;2.40;;
19889;SDS011;10107;51.198;6.824;2024-03-25T09:25:53;5.00;;;2.20;;
19889;SDS011;10107;51.198;6.824;2024-03-25T09:29:54;9.43;;;2.65;;
19889;SDS011;10107;51.198;6.824;2024-03-25T09:33:54;6.95;;;2.45;;
19889;SDS011;10107;51.198;6.824;2024-03-25T09:37:55;11.10;;;3.08;;
19889;SDS011;10107;51.198;6.824;2024-03-25T09:41:57;8.70;;;2.67;;
19889;SDS011;10107;51.198;6.824;2024-03-25T09:46:02;5.75;;;2.80;;
19889;SDS011;10107;51.198;6.824;2024-03-25T09:50:03;8.57;;;2.80;;
19889;SDS011;10107;51.198;6.824;2024-03-25T09:54:06;7.28;;;2.80;;
19889;SDS011;10107;51.198;6.824;2024-03-25T09:58:08;10.00;;;2.60;;
19889;SDS011;10107;51.198;6.824;2024-03-25T10:02:10;8.43;;;2.60;;
19889;SDS011;10107;51.198;6.824;2024-03-25T10:06:13;6.55;;;2.58;;
19889;SDS011;10107;51.198;6.824;2024-03-25T10:10:18;6.38;;;2.45;;
19889;SDS011;10107;51.198;6.824;2024-03-25T10:14:21;6.63;;;2.53;;
19889;SDS011;10107;51.198;6.824;2024-03-25T10:18:22;10.38;;;3.08;;
19889;SDS011;10107;51.198;6.824;2024-03-25T10:22:22;8.52;;;2.88;;
19889;SDS011;10107;51.198;6.824;2024-03-25T10:26:26;7.80;;;2.95;;
19889;SDS011;10107;51.198;6.824;2024-03-25T10:30:29;7.53;;;2.85;;
19889;SDS011;10107;51.198;6.824;2024-03-25T10:34:30;7.88;;;3.85;;
19889;SDS011;10107;51.198;6.824;2024-03-25T10:38:31;8.95;;;3.85;;
19889;SDS011;10107;51.198;6.824;2024-03-25T10:42:33;9.87;;;3.80;;
19889;SDS011;10107;51.198;6.824;2024-03-25T10:46:39;6.03;;;2.83;;
19889;SDS011;10107;51.198;6.824;2024-03-25T10:50:41;4.47;;;2.37;;
19889;SDS011;10107;51.198;6.824;2024-03-25T10:54:43;8.95;;;3.65;;
19889;SDS011;10107;51.198;6.824;2024-03-25T10:58:48;7.40;;;3.42;;
19889;SDS011;10107;51.198;6.824;2024-03-25T11:02:51;7.53;;;3.03;;
19889;SDS011;10107;51.198;6.824;2024-03-25T11:06:53;7.45;;;3.45;;
19889;SDS011;10107;51.198;6.824;2024-03-25T11:10:53;6.30;;;2.55;;
19889;SDS011;10107;51.198;6.824;2024-03-25T11:14:56;5.60;;;2.67;;
19889;SDS011;10107;51.198;6.824;2024-03-25T11:19:01;6.18;;;3.20;;
19889;SDS011;10107;51.198;6.824;2024-03-25T11:23:07;5.68;;;3.10;;
19889;SDS011;10107;51.198;6.824;2024-03-25T11:27:09;8.35;;;3.45;;
19889;SDS011;10107;51.198;6.824;2024-03-25T11:31:10;8.10;;;3.30;;
19889;SDS011;10107;51.198;6.824;2024-03-25T11:35:12;6.20;;;3.15;;
19889;SDS011;10107;51.198;6.824;2024-03-25T11:39:14;4.25;;;2.88;;
19889;SDS011;10107;51.198;6.824;2024-03-25T11:43:19;4.63;;;2.72;;
19889;SDS011;10107;51.198;6.824;2024-03-25T11:47:22;6.07;;;2.83;;
19889;SDS011;10107;51.198;6.824;2024-03-25T11:51:24;5.45;;;2.90;;
19889;SDS011;10107;51.198;6.824;2024-03-25T11:55:26;6.13;;;2.80;;
19889;SDS011;10107;51.198;6.824;2024-03-25T11:59:27;5.35;;;2.50;;
19889;SDS011;10107;51.198;6.824;2024-03-25T12:03:27;6.65;;;1.92;;
19889;SDS011;10107;51.198;6.824;2024-03-25T12:07:30;6.18;;;2.30;;
19889;SDS011;10107;51.198;6.824;2024-03-25T12:11:31;6.65;;;2.40;;
19889;SDS011;10107;51.198;6.824;2024-03-25T12:15:32;6.78;;;2.30;;
19889;SDS011;10107;51.198;6.824;2024-03-25T12:19:33;4.18;;;2.22;;
19889;SDS011;10107;51.198;6.824;2024-03-25T12:23:36;5.85;;;2.47;;
19889;SDS011;10107;51.198;6.824;2024-03-25T12:27:37;5.80;;;2.58;;
19889;SDS011;10107;51.198;6.824;2024-03-25T12:31:38;6.63;;;2.70;;
19889;SDS011;10107;51.198;6.824;2024-03-25T12:35:39;6.07;;;2.53;;
19889;SDS011;10107;51.198;6.824;2024-03-25T12:39:48;4.68;;;2.25;;
19889;SDS011;10107;51.198;6.824;2024-03-25T12:43:49;4.53;;;2.10;;
19889;SDS011;10107;51.198;6.824;2024-03-25T12:47:51;3.88;;;2.10;;
19889;SDS011;10107;51.198;6.824;2024-03-25T12:51:52;5.30;;;2.17;;
19889;SDS011;10107;51.198;6.824;2024-03-25T12:55:54;4.47;;;1.92;;
19889;SDS011;10107;51.198;6.824;2024-03-25T12:59:54;4.78;;;2.45;;
19889;SDS011;10107;51.198;6.824;2024-03-25T13:03:55;5.45;;;1.90;;
19889;SDS011;10107;51.198;6.824;2024-03-25T13:07:56;5.00;;;2.10;;
19889;SDS011;10107;51.198;6.824;2024-03-25T13:11:58;5.65;;;2.10;;
19889;SDS011;10107;51.198;6.824;2024-03-25T13:15:59;3.92;;;1.70;;
19889;SDS011;10107;51.198;6.824;2024-03-25T13:20:00;4.75;;;1.90;;
19889;SDS011;10107;51.198;6.824;2024-03-25T13:24:00;3.60;;;1.95;;
19889;SDS011;10107;51.198;6.824;2024-03-25T13:28:03;4.25;;;1.83;;
19889;SDS011;10107;51.198;6.824;2024-03-25T13:32:04;5.88;;;2.05;;
19889;SDS011;10107;51.198;6.824;2024-03-25T13:36:05;4.32;;;1.80;;
19889;SDS011;10107;51.198;6.824;2024-03-25T13:40:07;4.72;;;1.80;;
19889;SDS011;10107;51.198;6.824;2024-03-25T13:44:10;3.05;;;1.80;;
19889;SDS011;10107;51.198;6.824;2024-03-25T13:48:11;3.60;;;1.83;;
19889;SDS011;10107;51.198;6.824;2024-03-25T13:52:11;4.00;;;1.77;;
19889;SDS011;10107;51.198;6.824;2024-03-25T13:56:12;4.90;;;2.15;;
19889;SDS011;10107;51.198;6.824;2024-03-25T14:00:14;4.25;;;2.00;;
19889;SDS011;10107;51.198;6.824;2024-03-25T14:04:15;5.80;;;2.67;;
19889;SDS011;10107;51.198;6.824;2024-03-25T14:08:16;5.60;;;2.30;;
19889;SDS011;10107;51.198;6.824;2024-03-25T14:12:17;4.85;;;1.92;;
19889;SDS011;10107;51.198;6.824;2024-03-25T14:16:19;2.65;;;1.77;;
19889;SDS011;10107;51.198;6.824;2024-03-25T14:20:20;5.32;;;2.25;;
19889;SDS011;10107;51.198;6.824;2024-03-25T14:24:21;3.38;;;1.60;;
19889;SDS011;10107;51.198;6.824;2024-03-25T14:28:22;5.35;;;2.22;;
19889;SDS011;10107;51.198;6.824;2024-03-25T14:32:24;3.42;;;1.80;;
19889;SDS011;10107;51.198;6.824;2024-03-25T14:36:24;2.00;;;1.30;;
19889;SDS011;10107;51.198;6.824;2024-03-25T14:40:25;3.08;;;1.73;;
19889;SDS011;10107;51.198;6.824;2024-03-25T14:44:26;5.72;;;1.80;;
19889;SDS011;10107;51.198;6.824;2024-03-25T14:48:28;3.53;;;1.75;;
19889;SDS011;10107;51.198;6.824;2024-03-25T14:52:28;2.47;;;1.50;;
19889;SDS011;10107;51.198;6.824;2024-03-25T14:56:29;2.72;;;1.55;;
19889;SDS011;10107;51.198;6.824;2024-03-25T15:00:30;2.85;;;1.40;;
19889;SDS011;10107;51.198;6.824;2024-03-25T15:04:32;2.72;;;1.45;;
19889;SDS011;10107;51.198;6.824;2024-03-25T15:08:33;4.38;;;1.75;;
19889;SDS011;10107;51.198;6.824;2024-03-25T15:12:33;5.65;;;2.10;;
19889;SDS011;10107;51.198;6.824;2024-03-25T15:16:34;3.55;;;1.70;;
19889;SDS011;10107;51.198;6.824;2024-03-25T15:20:36;3.40;;;1.58;;
19889;SDS011;10107;51.198;6.824;2024-03-25T15:24:37;4.80;;;2.00;;
19889;SDS011;10107;51.198;6.824;2024-03-25T15:28:37;2.92;;;1.60;;
19889;SDS011;10107;51.198;6.824;2024-03-25T15:32:38;4.97;;;1.73;;
19889;SDS011;10107;51.198;6.824;2024-03-25T15:36:40;3.47;;;1.98;;
19889;SDS011;10107;51.198;6.824;2024-03-25T15:40:41;3.20;;;1.58;;
19889;SDS011;10107;51.198;6.824;2024-03-25T15:44:43;1.88;;;1.40;;
19889;SDS011;10107;51.198;6.824;2024-03-25T15:48:43;3.97;;;1.38;;
19889;SDS011;10107;51.198;6.824;2024-03-25T15:52:45;2.55;;;1.30;;
19889;SDS011;10107;51.198;6.824;2024-03-25T15:56:46;3.13;;;1.13;;
19889;SDS011;10107;51.198;6.824;2024-03-25T16:00:47;3.33;;;1.23;;
19889;SDS011;10107;51.198;6.824;2024-03-25T16:04:48;2.95;;;1.70;;
19889;SDS011;10107;51.198;6.824;2024-03-25T16:08:50;4.43;;;1.55;;
19889;SDS011;10107;51.198;6.824;2024-03-25T16:12:51;3.40;;;1.45;;
19889;SDS011;10107;51.198;6.824;2024-03-25T16:16:52;4.30;;;1.60;;
19889;SDS011;10107;51.198;6.824;2024-03-25T16:20:53;1.55;;;1.20;;
19889;SDS011;10107;51.198;6.824;2024-03-25T16:24:55;3.75;;;1.70;;
19889;SDS011;10107;51.198;6.824;2024-03-25T16:28:55;2.65;;;1.17;;
19889;SDS011;10107;51.198;6.824;2024-03-25T16:32:56;4.00;;;1.33;;
19889;SDS011;10107;51.198;6.824;2024-03-25T16:36:57;2.30;;;1.40;;
19889;SDS011;10107;51.198;6.824;2024-03-25T16:40:59;4.35;;;1.30;;
19889;SDS011;10107;51.198;6.824;2024-03-25T16:45:00;3.53;;;1.27;;
19889;SDS011;10107;51.198;6.824;2024-03-25T16:49:00;2.60;;;1.10;;
19889;SDS011;10107;51.198;6.824;2024-03-25T16:53:01;3.05;;;1.20;;
19889;SDS011;10107;51.198;6.824;2024-03-25T16:57:03;2.15;;;1.20;;
19889;SDS011;10107;51.198;6.824;2024-03-25T17:01:04;2.30;;;1.00;;
19889;SDS011;10107;51.198;6.824;2024-03-25T17:05:05;2.28;;;1.13;;
19889;SDS011;10107;51.198;6.824;2024-03-25T17:09:06;2.80;;;1.20;;
19889;SDS011;10107;51.198;6.824;2024-03-25T17:13:09;4.93;;;1.15;;
19889;SDS011;10107;51.198;6.824;2024-03-25T17:17:09;3.00;;;1.55;;
19889;SDS011;10107;51.198;6.824;2024-03-25T17:21:10;4.57;;;1.35;;
19889;SDS011;10107;51.198;6.824;2024-03-25T17:25:11;2.67;;;1.23;;
19889;SDS011;10107;51.198;6.824;2024-03-25T17:29:13;4.53;;;1.25;;
19889;SDS011;10107;51.198;6.824;2024-03-25T17:33:13;3.83;;;1.50;;
19889;SDS011;10107;51.198;6.824;2024-03-25T17:37:14;4.45;;;1.63;;
19889;SDS011;10107;51.198;6.824;2024-03-25T17:41:15;2.65;;;1.40;;
19889;SDS011;10107;51.198;6.824;2024-03-25T17:45:17;3.03;;;1.30;;
19889;SDS011;10107;51.198;6.824;2024-03-25T17:49:18;4.47;;;1.85;;
19889;SDS011;10107;51.198;6.824;2024-03-25T17:53:18;3.47;;;1.35;;
19889;SDS011;10107;51.198;6.824;2024-03-25T17:57:19;2.97;;;1.42;;
19889;SDS011;10107;51.198;6.824;2024-03-25T18:01:21;3.55;;;1.33;;
19889;SDS011;10107;51.198;6.824;2024-03-25T18:05:22;2.88;;;1.67;;
19889;SDS011;10107;51.198;6.824;2024-03-25T18:09:23;4.95;;;1.70;;
19889;SDS011;10107;51.198;6.824;2024-03-25T18:13:24;4.97;;;1.70;;
19889;SDS011;10107;51.198;6.824;2024-03-25T18:17:26;4.65;;;1.50;;
19889;SDS011;10107;51.198;6.824;2024-03-25T18:21:27;3.85;;;1.70;;
19889;SDS011;10107;51.198;6.824;2024-03-25T18:25:28;2.72;;;1.88;;
19889;SDS011;10107;51.198;6.824;2024-03-25T18:29:29;3.35;;;1.88;;
19889;SDS011;10107;51.198;6.824;2024-03-25T18:33:31;3.20;;;1.65;;
19889;SDS011;10107;51.198;6.824;2024-03-25T18:37:31;5.53;;;1.75;;
19889;SDS011;10107;51.198;6.824;2024-03-25T18:41:32;3.63;;;1.77;;
19889;SDS011;10107;51.198;6.824;2024-03-25T18:45:33;4.47;;;1.67;;
19889;SDS011;10107;51.198;6.824;2024-03-25T18:49:35;3.72;;;1.88;;
19889;SDS011;10107;51.198;6.824;2024-03-25T18:53:35;3.90;;;2.22;;
19889;SDS011;10107;51.198;6.824;2024-03-25T18:57:36;4.85;;;2.55;;
19889;SDS011;10107;51.198;6.824;2024-03-25T19:01:37;4.93;;;2.40;;
19889;SDS011;10107;51.198;6.824;2024-03-25T19:05:39;4.75;;;2.33;;
19889;SDS011;10107;51.198;6.824;2024-03-25T19:09:40;5.72;;;2.58;;
19889;SDS011;10107;51.198;6.824;2024-03-25T19:13:41;6.05;;;2.22;;
19889;SDS011;10107;51.198;6.824;2024-03-25T19:17:42;6.05;;;2.30;;
19889;SDS011;10107;51.198;6.824;2024-03-25T19:21:44;4.68;;;2.10;;
19889;SDS011;10107;51.198;6.824;2024-03-25T19:25:44;4.95;;;2.17;;
19889;SDS011;10107;51.198;6.824;2024-03-25T19:29:45;2.88;;;2.00;;
19889;SDS011;10107;51.198;6.824;2024-03-25T19:33:46;4.97;;;2.38;;
19889;SDS011;10107;51.198;6.824;2024-03-25T19:37:48;3.40;;;2.25;;
19889;SDS011;10107;51.198;6.824;2024-03-25T19:41:48;5.03;;;2.35;;
19889;SDS011;10107;51.198;6.824;2024-03-25T19:45:49;3.80;;;2.60;;
19889;SDS011;10107;51.198;6.824;2024-03-25T19:49:50;4.45;;;2.20;;
19889;SDS011;10107;51.198;6.824;2024-03-25T19:53:52;4.53;;;2.33;;
19889;SDS011;10107;51.198;6.824;2024-03-25T19:57:55;5.93;;;2.70;;
19889;SDS011;10107;51.198;6.824;2024-03-25T20:01:56;4.80;;;2.78;;
19889;SDS011;10107;51.198;6.824;2024-03-25T20:05:56;5.22;;;3.13;;
19889;SDS011;10107;51.198;6.824;2024-03-25T20:09:58;5.90;;;3.08;;
19889;SDS011;10107;51.198;6.824;2024-03-25T20:13:59;4.78;;;2.55;;
19889;SDS011;10107;51.198;6.824;2024-03-25T20:18:00;6.82;;;2.60;;
19889;SDS011;10107;51.198;6.824;2024-03-25T20:22:01;6.28;;;2.50;;
19889;SDS011;10107;51.198;6.824;2024-03-25T20:26:03;3.38;;;2.38;;
19889;SDS011;10107;51.198;6.824;2024-03-25T20:30:04;4.72;;;2.30;;
19889;SDS011;10107;51.198;6.824;2024-03-25T20:34:05;4.40;;;2.40;;
19889;SDS011;10107;51.198;6.824;2024-03-25T20:38:06;3.80;;;2.05;;
19889;SDS011;10107;51.198;6.824;2024-03-25T20:42:08;4.03;;;1.80;;
19889;SDS011;10107;51.198;6.824;2024-03-25T20:46:09;5.28;;;2.00;;
19889;SDS011;10107;51.198;6.824;2024-03-25T20:50:10;6.00;;;1.80;;
19889;SDS011;10107;51.198;6.824;2024-03-25T20:54:11;5.45;;;1.92;;
19889;SDS011;10107;51.198;6.824;2024-03-25T20:58:13;3.25;;;1.80;;
19889;SDS011;10107;51.198;6.824;2024-03-25T21:02:14;4.25;;;2.20;;
19889;SDS011;10107;51.198;6.824;2024-03-25T21:06:15;2.92;;;1.75;;
19889;SDS011;10107;51.198;6.824;2024-03-25T21:10:16;3.78;;;1.85;;
19889;SDS011;10107;51.198;6.824;2024-03-25T21:14:19;5.57;;;2.05;;
19889;SDS011;10107;51.198;6.824;2024-03-25T21:18:20;4.32;;;2.00;;
19889;SDS011;10107;51.198;6.824;2024-03-25T21:22:21;5.10;;;2.40;;
19889;SDS011;10107;51.198;6.824;2024-03-25T21:26:21;4.15;;;2.08;;
19889;SDS011;10107;51.198;6.824;2024-03-25T21:30:24;6.43;;;2.25;;
19889;SDS011;10107;51.198;6.824;2024-03-25T21:34:25;4.50;;;2.20;;
19889;SDS011;10107;51.198;6.824;2024-03-25T21:38:26;4.82;;;2.35;;
19889;SDS011;10107;51.198;6.824;2024-03-25T21:42:26;2.80;;;1.60;;
19889;SDS011;10107;51.198;6.824;2024-03-25T21:46:28;5.70;;;2.20;;
19889;SDS011;10107;51.198;6.824;2024-03-25T21:50:29;4.75;;;2.05;;
19889;SDS011;10107;51.198;6.824;2024-03-25T21:54:30;5.47;;;2.00;;
19889;SDS011;10107;51.198;6.824;2024-03-25T21:58:30;5.10;;;1.88;;
19889;SDS011;10107;51.198;6.824;2024-03-25T22:02:32;4.95;;;2.15;;
19889;SDS011;10107;51.198;6.824;2024-03-25T22:06:33;4.10;;;2.38;;
19889;SDS011;10107;51.198;6.824;2024-03-25T22:10:34;6.13;;;2.38;;
19889;SDS011;10107;51.198;6.824;2024-03-25T22:14:34;3.38;;;2.10;;
19889;SDS011;10107;51.198;6.824;2024-03-25T22:18:36;7.03;;;2.45;;
19889;SDS011;10107;51.198;6.824;2024-03-25T22:22:37;7.45;;;2.25;;
19889;SDS011;10107;51.198;6.824;2024-03-25T22:26:38;4.90;;;2.10;;
19889;SDS011;10107;51.198;6.824;2024-03-25T22:30:38;6.68;;;2.28;;
19889;SDS011;10107;51.198;6.824;2024-03-25T22:34:40;3.58;;;1.90;;
19889;SDS011;10107;51.198;6.824;2024-03-25T22:38:41;4.70;;;2.13;;
19889;SDS011;10107;51.198;6.824;2024-03-25T22:42:42;6.72;;;2.58;;
19889;SDS011;10107;51.198;6.824;2024-03-25T22:46:44;4.55;;;2.08;;
19889;SDS011;10107;51.198;6.824;2024-03-25T22:50:55;3.08;;;2.15;;
19889;SDS011;10107;51.198;6.824;2024-03-25T22:54:56;7.53;;;2.17;;
19889;SDS011;10107;51.198;6.824;2024-03-25T22:58:57;4.22;;;2.15;;
19889;SDS011;10107;51.198;6.824;2024-03-25T23:02:57;3.35;;;2.20;;
19889;SDS011;10107;51.198;6.824;2024-03-25T23:06:59;3.75;;;2.10;;
19889;SDS011;10107;51.198;6.824;2024-03-25T23:11:00;4.95;;;2.53;;
19889;SDS011;10107;51.198;6.824;2024-03-25T23:15:02;3.83;;;2.00;;
19889;SDS011;10107;51.198;6.824;2024-03-25T23:19:03;5.63;;;2.30;;
19889;SDS011;10107;51.198;6.824;2024-03-25T23:23:05;5.30;;;2.30;;
19889;SDS011;10107;51.198;6.824;2024-03-25T23:27:05;5.78;;;2.13;;
19889;SDS011;10107;51.198;6.824;2024-03-25T23:31:06;3.75;;;2.00;;
19889;SDS011;10107;51.198;6.824;2024-03-25T23:35:07;4.20;;;1.90;;
19889;SDS011;10107;51.198;6.824;2024-03-25T23:39:10;4.55;;;2.00;;
19889;SDS011;10107;51.198;6.824;2024-03-25T23:43:10;6.15;;;2.22;;
19889;SDS011;10107;51.198;6.824;2024-03-25T23:47:11;4.57;;;1.98;;
19889;SDS011;10107;51.198;6.824;2024-03-25T23:51:12;2.83;;;1.73;;
19889;SDS011;10107;51.198;6.824;2024-03-25T23:55:14;4.13;;;1.92;;
19889;SDS011;10107;51.198;6.824;2024-03-25T23:59:14;4.22;;;2.05;;
